createdAt,value
2022-12-18T00:02:08.230Z,4.67
2022-12-18T00:07:11.020Z,7.45
2022-12-18T00:17:18.853Z,6.00
2022-12-18T00:22:21.573Z,3.90
2022-12-18T00:27:24.202Z,5.97
2022-12-18T00:32:26.880Z,7.40
2022-12-18T00:37:29.530Z,6.15
2022-12-18T00:42:50.571Z,5.05
2022-12-18T00:47:53.310Z,5.20
2022-12-18T00:52:55.981Z,5.43
2022-12-18T00:57:58.703Z,5.53
2022-12-18T01:03:01.535Z,6.85
2022-12-18T01:08:04.765Z,4.80
2022-12-18T01:13:07.494Z,7.97
2022-12-18T01:18:10.204Z,6.20
2022-12-18T01:23:12.898Z,4.32
2022-12-18T01:28:15.544Z,2.63
2022-12-18T01:33:18.225Z,6.05
2022-12-18T01:38:21.021Z,5.60
2022-12-18T01:43:23.893Z,5.77
2022-12-18T01:48:26.544Z,6.60
2022-12-18T01:53:29.844Z,5.72
2022-12-18T01:58:41.863Z,6.70
2022-12-18T02:03:45.634Z,5.03
2022-12-18T02:08:55.676Z,6.30
2022-12-18T02:14:38.769Z,4.65
2022-12-18T02:19:46.977Z,6.20
2022-12-18T02:25:22.865Z,2.97
2022-12-18T02:30:26.026Z,7.32
2022-12-18T02:35:31.611Z,5.80
2022-12-18T02:40:38.364Z,6.65
2022-12-18T02:45:59.340Z,6.70
2022-12-18T02:51:14.826Z,5.35
2022-12-18T02:56:27.436Z,6.45
2022-12-18T03:01:53.729Z,5.47
2022-12-18T03:07:06.395Z,6.03
2022-12-18T03:12:24.197Z,6.13
2022-12-18T03:17:32.019Z,2.92
2022-12-18T03:22:38.602Z,2.38
2022-12-18T03:27:47.723Z,3.70
2022-12-18T03:33:11.973Z,7.28
2022-12-18T03:38:19.862Z,5.60
2022-12-18T03:43:50.044Z,5.53
2022-12-18T03:49:09.997Z,7.53
2022-12-18T03:54:14.130Z,6.13
2022-12-18T03:59:27.406Z,6.10
2022-12-18T04:04:32.233Z,7.43
2022-12-18T04:09:39.615Z,4.80
2022-12-18T04:14:42.603Z,5.32
2022-12-18T04:19:46.043Z,7.43
2022-12-18T04:24:48.904Z,7.05
2022-12-18T04:30:00.357Z,5.53
2022-12-18T04:35:05.358Z,3.47
2022-12-18T04:40:09.598Z,7.13
2022-12-18T04:45:17.474Z,6.10
2022-12-18T04:50:21.281Z,5.28
2022-12-18T04:55:23.834Z,1.77
2022-12-18T05:00:26.580Z,4.53
2022-12-18T05:05:29.498Z,5.45
2022-12-18T05:10:37.760Z,6.10
2022-12-18T05:15:41.169Z,4.30
2022-12-18T05:20:43.949Z,2.50
2022-12-18T05:25:57.058Z,5.35
2022-12-18T05:31:01.613Z,8.43
2022-12-18T05:36:07.254Z,4.87
2022-12-18T05:41:10.678Z,5.13
2022-12-18T05:46:16.283Z,7.68
2022-12-18T05:51:21.327Z,5.50
2022-12-18T05:56:24.806Z,6.30
2022-12-18T06:01:28.195Z,5.23
2022-12-18T06:06:31.267Z,4.85
2022-12-18T06:11:33.942Z,4.93
2022-12-18T06:16:36.757Z,5.55
2022-12-18T06:21:39.405Z,6.15
2022-12-18T06:26:42.431Z,5.73
2022-12-18T06:31:45.039Z,6.15
2022-12-18T06:36:47.751Z,7.38
2022-12-18T06:41:50.384Z,4.78
2022-12-18T06:46:53.013Z,5.38
2022-12-18T06:51:55.593Z,5.47
2022-12-18T06:56:58.275Z,5.85
2022-12-18T07:02:01.099Z,7.50
2022-12-18T07:07:04.175Z,7.97
2022-12-18T07:12:08.032Z,7.47
2022-12-18T07:17:10.846Z,7.50
2022-12-18T07:22:13.695Z,6.32
2022-12-18T07:27:16.450Z,6.70
2022-12-18T07:32:19.127Z,9.32
2022-12-18T07:37:22.155Z,8.23
2022-12-18T07:42:33.584Z,8.50
2022-12-18T07:47:39.741Z,9.45
2022-12-18T07:52:42.448Z,7.80
2022-12-18T07:57:55.388Z,7.88
2022-12-18T08:03:00.698Z,9.10
2022-12-18T08:08:03.548Z,7.87
2022-12-18T08:13:06.239Z,7.63
2022-12-18T08:18:13.885Z,7.13
2022-12-18T08:23:17.268Z,8.25
2022-12-18T08:28:19.887Z,7.95
2022-12-18T08:33:22.561Z,6.77
2022-12-18T08:38:25.504Z,8.45
2022-12-18T08:43:47.248Z,8.48
2022-12-18T08:48:52.312Z,9.82
2022-12-18T08:53:54.968Z,10.07
2022-12-18T08:58:58.203Z,8.80
2022-12-18T09:04:00.926Z,8.88
2022-12-18T09:09:05.179Z,8.98
2022-12-18T09:14:07.929Z,9.18
2022-12-18T09:19:11.464Z,11.35
2022-12-18T09:24:15.339Z,8.83
2022-12-18T09:29:18.988Z,9.00
2022-12-18T09:34:23.110Z,11.38
2022-12-18T09:39:25.868Z,7.63
2022-12-18T09:44:45.423Z,9.98
2022-12-18T09:49:56.438Z,11.50
2022-12-18T09:55:10.927Z,9.15
2022-12-18T10:00:21.729Z,13.70
2022-12-18T10:05:33.408Z,12.60
2022-12-18T10:10:49.140Z,11.95
2022-12-18T10:16:13.730Z,13.73
2022-12-18T10:21:59.526Z,15.27
2022-12-18T10:27:18.572Z,15.63
2022-12-18T10:32:24.581Z,17.05
2022-12-18T10:37:29.737Z,16.95
2022-12-18T10:42:32.785Z,15.97
2022-12-18T10:47:35.849Z,19.52
2022-12-18T10:52:43.454Z,17.08
2022-12-18T10:57:47.967Z,17.13
2022-12-18T11:02:51.320Z,15.60
2022-12-18T11:07:55.549Z,16.43
2022-12-18T11:13:11.972Z,16.80
2022-12-18T11:18:23.547Z,15.90
2022-12-18T11:23:28.193Z,15.85
2022-12-18T11:28:38.416Z,17.92
2022-12-18T11:34:04.873Z,15.60
2022-12-18T11:39:21.417Z,16.35
2022-12-18T11:44:36.945Z,14.23
2022-12-18T11:49:42.677Z,15.43
2022-12-18T11:54:45.950Z,16.88
2022-12-18T12:00:14.424Z,16.60
2022-12-18T12:05:40.067Z,15.82
2022-12-18T12:11:01.307Z,16.40
2022-12-18T12:16:18.517Z,16.15
2022-12-18T12:21:35.070Z,15.68
2022-12-18T12:26:47.158Z,13.03
2022-12-18T12:32:18.958Z,14.45
2022-12-18T12:37:46.347Z,14.85
2022-12-18T12:43:16.416Z,13.25
2022-12-18T12:48:33.978Z,12.57
2022-12-18T12:53:40.422Z,11.60
2022-12-18T12:58:44.049Z,11.63
2022-12-18T13:04:05.188Z,10.18
2022-12-18T13:09:08.048Z,9.60
2022-12-18T13:14:23.146Z,9.57
2022-12-18T13:19:28.121Z,10.77
2022-12-18T13:24:33.595Z,10.60
2022-12-18T13:29:47.496Z,10.13
2022-12-18T13:35:10.309Z,9.73
2022-12-18T13:40:42.758Z,10.65
2022-12-18T13:46:07.721Z,9.77
2022-12-18T13:51:12.498Z,9.02
2022-12-18T13:56:21.181Z,10.05
2022-12-18T14:01:25.624Z,10.05
2022-12-18T14:06:28.613Z,9.23
2022-12-18T14:11:31.580Z,9.93
2022-12-18T14:16:36.050Z,8.75
2022-12-18T14:21:39.800Z,13.20
2022-12-18T14:26:43.869Z,8.38
2022-12-18T14:31:46.652Z,12.85
2022-12-18T14:36:57.361Z,11.37
2022-12-18T14:42:00.132Z,13.65
2022-12-18T14:47:02.831Z,11.45
2022-12-18T14:52:18.945Z,13.38
2022-12-18T14:57:30.617Z,9.35
2022-12-18T15:02:36.855Z,10.00
2022-12-18T15:07:53.500Z,6.75
2022-12-18T15:13:03.608Z,7.80
2022-12-18T15:18:14.278Z,8.48
2022-12-18T15:23:24.508Z,9.07
2022-12-18T15:28:30.709Z,9.37
2022-12-18T15:33:42.522Z,11.82
2022-12-18T15:38:49.929Z,12.95
2022-12-18T15:43:53.918Z,9.65
2022-12-18T15:49:02.132Z,8.88
2022-12-18T15:54:10.508Z,9.50
2022-12-18T15:59:16.434Z,7.97
2022-12-18T16:04:23.830Z,7.95
2022-12-18T16:09:26.745Z,7.97
2022-12-18T16:14:32.468Z,10.30
2022-12-18T16:19:35.081Z,8.77
2022-12-18T16:24:38.709Z,11.45
2022-12-18T16:29:41.617Z,7.88
2022-12-18T16:34:45.128Z,9.80
2022-12-18T16:39:47.849Z,11.75
2022-12-18T16:44:51.019Z,12.97
2022-12-18T16:49:53.874Z,15.05
2022-12-18T16:54:56.856Z,54.60
2022-12-18T17:00:04.741Z,34.53
2022-12-18T17:05:08.330Z,13.63
2022-12-18T17:10:11.179Z,9.77
2022-12-18T17:15:14.586Z,11.18
2022-12-18T17:20:17.659Z,12.38
2022-12-18T17:25:22.928Z,9.07
2022-12-18T17:30:27.089Z,10.82
2022-12-18T17:35:30.794Z,9.60
2022-12-18T17:40:34.589Z,8.15
2022-12-18T17:45:39.049Z,6.05
2022-12-18T17:50:42.068Z,3.78
2022-12-18T17:55:44.885Z,3.60
2022-12-18T18:00:48.056Z,6.07
2022-12-18T18:08:01.830Z,8.53
2022-12-18T18:13:46.667Z,9.25
2022-12-18T18:18:49.928Z,10.43
2022-12-18T18:23:52.747Z,13.27
2022-12-18T18:28:56.099Z,9.38
2022-12-18T18:33:59.539Z,7.33
2022-12-18T18:39:02.427Z,7.88
2022-12-18T18:44:05.459Z,8.45
2022-12-18T18:49:08.270Z,7.90
2022-12-18T18:54:11.237Z,10.13
2022-12-18T18:59:14.020Z,6.70
2022-12-18T19:04:16.792Z,8.55
2022-12-18T19:09:19.559Z,8.82
2022-12-18T19:14:22.653Z,6.07
2022-12-18T19:19:25.596Z,8.77
2022-12-18T20:00:30.400Z,4.67
2022-12-18T20:05:33.351Z,8.23
2022-12-18T20:10:36.190Z,8.25
2022-12-18T20:15:43.489Z,7.57
2022-12-18T20:20:48.186Z,7.07
2022-12-18T20:25:54.180Z,6.87
2022-12-18T20:31:06.719Z,7.13
2022-12-18T20:36:15.570Z,6.68
2022-12-18T20:41:23.831Z,9.00
2022-12-18T20:46:26.716Z,8.70
2022-12-18T20:51:30.866Z,5.03
2022-12-18T20:56:33.780Z,5.10
2022-12-18T21:01:36.675Z,4.45
2022-12-18T21:06:42.854Z,6.83
2022-12-18T21:12:05.888Z,5.70
2022-12-18T21:17:08.771Z,8.73
2022-12-18T21:22:12.207Z,6.30
2022-12-18T21:27:16.456Z,7.78
2022-12-18T21:32:20.868Z,5.13
2022-12-18T21:37:41.491Z,5.10
2022-12-18T21:43:03.049Z,6.80
2022-12-18T21:48:06.149Z,5.75
2022-12-18T21:53:09.222Z,9.60
2022-12-18T21:58:12.002Z,7.45
2022-12-18T22:03:18.321Z,7.05
2022-12-18T22:08:21.861Z,6.93
2022-12-18T22:13:24.588Z,8.27
2022-12-18T22:18:27.679Z,7.60
2022-12-18T22:23:31.117Z,6.20
2022-12-18T22:28:52.204Z,2.22
2022-12-18T22:33:55.014Z,7.73
2022-12-18T22:38:57.592Z,3.15
2022-12-18T22:44:00.212Z,5.93
2022-12-18T22:49:02.940Z,6.70
2022-12-18T22:54:05.753Z,5.30
2022-12-18T22:59:09.439Z,5.63
2022-12-18T23:04:12.516Z,5.78
2022-12-18T23:09:17.823Z,7.63
2022-12-18T23:14:21.067Z,8.68
2022-12-18T23:19:24.412Z,12.73
2022-12-18T23:24:27.072Z,6.90
2022-12-18T23:29:29.718Z,7.70
2022-12-18T23:34:32.388Z,6.65
2022-12-18T23:39:35.017Z,6.70
2022-12-18T23:44:37.657Z,9.73
2022-12-18T23:49:40.384Z,4.10
2022-12-18T23:54:43.684Z,10.35
2022-12-18T23:59:46.384Z,11.30
